createdAt,value
2019-02-07T00:01:21.254Z,22.70
2019-02-07T00:03:50.652Z,25.53
2019-02-07T00:06:20.528Z,23.43
2019-02-07T00:08:49.865Z,23.17
2019-02-07T00:11:19.267Z,24.67
2019-02-07T00:13:48.624Z,25.47
2019-02-07T00:16:18.023Z,23.30
2019-02-07T00:18:47.304Z,24.97
2019-02-07T00:21:16.634Z,25.70
2019-02-07T00:23:46.036Z,25.93
2019-02-07T00:26:15.366Z,25.63
2019-02-07T00:28:45.152Z,25.90
2019-02-07T00:31:14.433Z,25.93
2019-02-07T00:33:44.771Z,27.03
2019-02-07T00:36:14.068Z,26.07
2019-02-07T00:38:43.465Z,26.37
2019-02-07T00:41:12.864Z,26.93
2019-02-07T00:43:42.145Z,25.37
2019-02-07T00:46:11.951Z,23.93
2019-02-07T00:48:41.240Z,25.50
2019-02-07T00:51:10.581Z,24.93
2019-02-07T00:53:39.871Z,23.83
2019-02-07T00:56:09.272Z,25.70
2019-02-07T00:58:38.576Z,24.97
2019-02-07T01:01:09.872Z,25.17
2019-02-07T01:03:39.561Z,26.03
2019-02-07T01:06:08.984Z,24.83
2019-02-07T01:08:38.728Z,24.67
2019-02-07T01:11:08.052Z,24.53
2019-02-07T01:13:37.368Z,24.20
2019-02-07T01:16:06.895Z,23.57
2019-02-07T01:18:36.264Z,23.47
2019-02-07T01:21:06.048Z,24.73
2019-02-07T01:23:35.373Z,24.10
2019-02-07T01:26:04.971Z,24.93
2019-02-07T01:28:34.351Z,23.87
2019-02-07T01:31:03.720Z,24.00
2019-02-07T01:33:33.039Z,24.23
2019-02-07T01:36:02.349Z,23.97
2019-02-07T01:38:31.668Z,22.73
2019-02-07T01:41:00.996Z,23.23
2019-02-07T01:43:30.754Z,23.07
2019-02-07T01:46:00.758Z,24.47
2019-02-07T01:48:30.116Z,23.03
2019-02-07T01:50:59.432Z,23.70
2019-02-07T01:53:28.764Z,23.73
2019-02-07T01:55:58.137Z,23.03
2019-02-07T01:58:27.545Z,23.07
2019-02-07T02:00:57.650Z,23.90
2019-02-07T02:03:27.024Z,23.13
2019-02-07T02:05:56.351Z,25.70
2019-02-07T02:08:25.705Z,24.10
2019-02-07T02:10:55.581Z,23.63
2019-02-07T02:13:25.040Z,24.40
2019-02-07T02:15:54.328Z,25.60
2019-02-07T02:18:24.511Z,27.20
2019-02-07T02:20:53.794Z,28.60
2019-02-07T02:23:23.189Z,27.83
2019-02-07T02:25:52.576Z,26.50
2019-02-07T02:28:21.877Z,27.53
2019-02-07T02:30:51.200Z,26.40
2019-02-07T02:33:20.620Z,27.30
2019-02-07T02:35:50.013Z,28.50
2019-02-07T02:38:19.382Z,30.07
2019-02-07T02:40:48.700Z,28.03
2019-02-07T02:43:18.073Z,27.60
2019-02-07T02:45:47.469Z,27.33
2019-02-07T02:48:16.757Z,26.83
2019-02-07T02:50:46.096Z,25.80
2019-02-07T02:53:15.448Z,26.80
2019-02-07T02:55:45.776Z,25.63
2019-02-07T02:58:15.062Z,26.03
2019-02-07T03:01:06.397Z,26.53
2019-02-07T03:03:47.715Z,25.97
2019-02-07T03:06:41.504Z,24.33
2019-02-07T03:09:34.613Z,25.10
2019-02-07T03:12:22.669Z,23.53
2019-02-07T03:15:23.319Z,25.03
2019-02-07T03:18:05.112Z,23.80
2019-02-07T03:20:51.980Z,27.40
2019-02-07T03:23:39.198Z,28.23
2019-02-07T03:26:26.050Z,26.20
2019-02-07T03:29:13.252Z,25.03
2019-02-07T03:32:10.849Z,27.50
2019-02-07T03:34:57.848Z,24.50
2019-02-07T03:37:46.112Z,24.33
2019-02-07T03:40:39.601Z,23.87
2019-02-07T03:43:27.657Z,25.47
2019-02-07T03:46:14.855Z,27.70
2019-02-07T03:49:18.474Z,30.97
2019-02-07T03:52:15.748Z,30.60
2019-02-07T03:55:02.739Z,30.00
2019-02-07T03:57:49.520Z,28.93
2019-02-07T04:00:41.469Z,29.97
2019-02-07T04:03:32.505Z,29.80
2019-02-07T04:06:20.686Z,27.90
2019-02-07T04:09:12.432Z,28.03
2019-02-07T04:11:56.836Z,30.50
2019-02-07T04:14:37.357Z,29.57
2019-02-07T04:17:31.742Z,28.80
2019-02-07T04:20:26.048Z,29.90
2019-02-07T04:23:26.613Z,27.90
2019-02-07T04:26:24.778Z,28.73
2019-02-07T04:29:09.212Z,28.13
2019-02-07T04:31:57.394Z,30.40
2019-02-07T04:34:44.497Z,28.13
2019-02-07T04:37:38.688Z,28.80
2019-02-07T04:40:34.159Z,31.73
2019-02-07T04:43:28.503Z,29.50
2019-02-07T04:46:30.182Z,30.10
2019-02-07T04:49:21.310Z,32.10
2019-02-07T04:52:03.956Z,30.73
2019-02-07T04:54:41.081Z,31.73
2019-02-07T04:57:29.304Z,33.30
2019-02-07T05:00:17.649Z,32.57
2019-02-07T05:03:05.336Z,31.47
2019-02-07T05:06:02.003Z,31.33
2019-02-07T05:08:50.300Z,31.67
2019-02-07T05:11:37.292Z,31.00
2019-02-07T05:14:15.110Z,31.37
2019-02-07T05:17:12.683Z,31.13
2019-02-07T05:19:59.798Z,29.37
2019-02-07T05:22:48.138Z,30.27
2019-02-07T05:25:35.793Z,30.47
2019-02-07T05:28:17.440Z,28.10
2019-02-07T05:30:57.703Z,28.63
2019-02-07T05:33:57.930Z,30.57
2019-02-07T05:36:42.296Z,29.83
2019-02-07T05:39:30.247Z,28.87
2019-02-07T05:42:27.584Z,38.80
2019-02-07T05:45:12.320Z,31.83
2019-02-07T05:47:50.484Z,30.83
2019-02-07T05:50:37.673Z,29.33
2019-02-07T05:53:32.040Z,30.00
2019-02-07T05:56:29.308Z,30.77
2019-02-07T05:59:23.417Z,29.73
2019-02-07T06:02:00.176Z,27.93
2019-02-07T06:04:57.296Z,28.20
2019-02-07T06:07:39.108Z,27.87
2019-02-07T06:10:28.180Z,26.53
2019-02-07T06:13:19.296Z,26.30
2019-02-07T06:16:08.928Z,25.23
2019-02-07T06:19:09.551Z,24.20
2019-02-07T06:21:48.338Z,24.10
2019-02-07T06:24:48.904Z,23.93
2019-02-07T06:27:36.744Z,22.73
2019-02-07T06:30:19.981Z,23.47
2019-02-07T06:33:07.302Z,23.93
2019-02-07T06:36:01.801Z,23.00
2019-02-07T06:39:08.745Z,24.37
2019-02-07T06:42:15.512Z,24.93
2019-02-07T06:45:03.050Z,25.17
2019-02-07T06:47:49.321Z,23.87
2019-02-07T06:50:38.524Z,26.63
2019-02-07T06:53:25.641Z,26.63
2019-02-07T06:56:12.784Z,25.87
2019-02-07T06:59:03.902Z,27.30
2019-02-07T07:01:50.923Z,27.50
2019-02-07T07:04:34.348Z,28.30
2019-02-07T07:07:37.796Z,28.40
2019-02-07T07:10:18.972Z,28.83
2019-02-07T07:13:16.323Z,29.47
2019-02-07T07:16:07.564Z,29.90
2019-02-07T07:19:01.944Z,30.70
2019-02-07T07:22:08.567Z,31.67
2019-02-07T07:25:00.717Z,31.47
2019-02-07T07:27:47.664Z,29.60
2019-02-07T07:30:55.558Z,29.97
2019-02-07T07:33:45.448Z,28.07
2019-02-07T07:36:32.544Z,32.43
2019-02-07T07:39:23.052Z,30.47
2019-02-07T07:42:12.337Z,32.40
2019-02-07T07:45:06.606Z,30.63
2019-02-07T07:47:53.523Z,30.60
2019-02-07T07:50:54.268Z,30.40
2019-02-07T07:53:48.617Z,29.10
2019-02-07T07:56:40.296Z,29.67
2019-02-07T07:59:46.843Z,32.93
2019-02-07T08:02:43.332Z,30.00
2019-02-07T08:05:20.286Z,29.60
2019-02-07T08:08:07.840Z,31.20
2019-02-07T08:11:11.541Z,32.77
2019-02-07T08:13:53.619Z,38.37
2019-02-07T08:16:41.883Z,32.60
2019-02-07T08:19:30.231Z,32.07
2019-02-07T08:22:24.706Z,33.97
2019-02-07T08:25:11.508Z,33.10
2019-02-07T08:28:06.456Z,34.23
2019-02-07T08:31:12.988Z,30.97
2019-02-07T08:34:00.199Z,30.43
2019-02-07T08:36:51.008Z,28.07
2019-02-07T08:39:57.860Z,28.13
2019-02-07T08:42:52.200Z,28.20
2019-02-07T08:45:49.818Z,27.17
2019-02-07T08:48:44.646Z,29.10
2019-02-07T08:51:45.044Z,28.13
2019-02-07T08:54:32.276Z,29.27
2019-02-07T08:57:31.101Z,29.67
2019-02-07T09:00:20.988Z,29.80
2019-02-07T09:03:08.354Z,29.93
2019-02-07T09:06:09.821Z,31.80
2019-02-07T09:09:07.091Z,31.73
2019-02-07T09:11:52.537Z,31.30
2019-02-07T09:14:43.674Z,33.60
2019-02-07T09:17:23.136Z,34.07
2019-02-07T09:20:03.016Z,36.10
2019-02-07T09:22:46.800Z,32.73
2019-02-07T09:25:34.570Z,33.00
2019-02-07T09:28:32.926Z,33.37
2019-02-07T09:31:21.073Z,32.93
2019-02-07T09:34:08.049Z,32.50
2019-02-07T09:37:02.296Z,32.50
2019-02-07T09:39:50.569Z,31.57
2019-02-07T09:42:51.208Z,33.13
2019-02-07T09:45:39.388Z,31.27
2019-02-07T09:48:33.809Z,34.27
2019-02-07T09:51:27.921Z,32.37
2019-02-07T09:54:11.900Z,32.73
2019-02-07T09:57:09.348Z,34.10
2019-02-07T10:00:03.687Z,31.87
2019-02-07T10:02:51.984Z,32.87
2019-02-07T10:05:47.844Z,33.50
2019-02-07T10:08:32.676Z,34.97
2019-02-07T10:11:18.692Z,35.23
2019-02-07T10:14:14.122Z,36.37
2019-02-07T10:17:08.662Z,34.60
2019-02-07T10:19:55.208Z,36.63
2019-02-07T10:22:43.316Z,35.47
2019-02-07T10:25:30.688Z,34.87
2019-02-07T10:28:33.329Z,34.87
2019-02-07T10:31:20.081Z,34.90
2019-02-07T10:34:07.029Z,37.00
2019-02-07T10:37:07.953Z,35.40
2019-02-07T10:39:48.757Z,36.87
2019-02-07T10:42:28.038Z,34.10
2019-02-07T10:45:20.434Z,35.53
2019-02-07T10:48:08.772Z,34.07
2019-02-07T10:51:03.016Z,34.60
2019-02-07T10:53:57.164Z,35.03
2019-02-07T10:56:49.044Z,36.10
2019-02-07T10:59:35.942Z,37.93
2019-02-07T11:02:24.739Z,36.93
2019-02-07T11:05:29.205Z,35.30
2019-02-07T11:08:06.904Z,35.00
2019-02-07T11:10:54.876Z,37.10
2019-02-07T11:13:52.369Z,38.23
2019-02-07T11:16:31.382Z,36.50
2019-02-07T11:19:31.572Z,35.60
2019-02-07T11:22:18.894Z,34.63
2019-02-07T11:25:07.143Z,35.87
2019-02-07T11:28:10.138Z,34.30
2019-02-07T11:31:00.141Z,35.40
2019-02-07T11:33:51.229Z,36.70
2019-02-07T11:36:29.829Z,34.53
2019-02-07T11:39:18.097Z,38.57
2019-02-07T11:42:24.777Z,37.77
2019-02-07T11:45:13.068Z,34.50
2019-02-07T11:48:00.260Z,35.90
2019-02-07T11:51:00.900Z,36.90
2019-02-07T11:53:47.807Z,33.67
2019-02-07T11:56:28.125Z,35.20
2019-02-07T11:59:31.745Z,35.00
2019-02-07T12:02:35.225Z,34.80
2019-02-07T12:05:24.230Z,36.73
2019-02-07T12:08:16.310Z,38.17
2019-02-07T12:11:22.836Z,37.07
2019-02-07T12:14:10.267Z,36.93
2019-02-07T12:17:02.163Z,36.80
2019-02-07T12:19:56.328Z,36.37
2019-02-07T12:22:44.476Z,36.60
2019-02-07T12:25:40.165Z,36.77
2019-02-07T12:28:21.692Z,36.63
2019-02-07T12:31:19.820Z,37.77
2019-02-07T12:34:23.280Z,35.93
2019-02-07T12:37:14.555Z,37.60
2019-02-07T12:40:09.061Z,36.27
2019-02-07T12:42:56.312Z,37.93
2019-02-07T12:45:42.220Z,37.60
2019-02-07T12:48:43.066Z,35.70
2019-02-07T12:51:30.111Z,35.80
2019-02-07T12:54:17.034Z,37.17
2019-02-07T12:57:07.053Z,37.30
2019-02-07T13:00:07.678Z,36.70
2019-02-07T13:02:59.069Z,36.70
2019-02-07T13:05:59.504Z,36.63
2019-02-07T13:08:50.729Z,37.10
2019-02-07T13:11:47.887Z,37.20
2019-02-07T13:14:31.863Z,38.67
2019-02-07T13:17:22.995Z,38.23
2019-02-07T13:20:14.242Z,36.50
2019-02-07T13:22:58.454Z,37.23
2019-02-07T13:25:45.249Z,37.17
2019-02-07T13:28:24.578Z,36.47
2019-02-07T13:31:18.907Z,37.07
2019-02-07T13:34:16.525Z,37.27
2019-02-07T13:37:03.739Z,37.93
2019-02-07T13:39:47.633Z,34.87
2019-02-07T13:42:50.662Z,36.20
2019-02-07T13:45:41.056Z,37.23
2019-02-07T13:48:38.617Z,35.93
2019-02-07T13:51:26.276Z,36.17
2019-02-07T13:54:17.844Z,37.13
2019-02-07T13:57:07.909Z,36.17
2019-02-07T14:00:02.585Z,36.80
2019-02-07T14:02:49.655Z,34.80
2019-02-07T14:05:40.779Z,36.50
2019-02-07T14:08:44.318Z,36.97
2019-02-07T14:11:31.655Z,35.60
2019-02-07T14:14:38.993Z,36.93
2019-02-07T14:17:33.069Z,35.53
2019-02-07T14:20:16.543Z,34.37
2019-02-07T14:23:03.544Z,36.97
2019-02-07T14:25:47.871Z,36.07
2019-02-07T14:28:35.177Z,35.03
2019-02-07T14:31:23.556Z,35.83
2019-02-07T14:34:30.019Z,36.07
2019-02-07T14:37:34.370Z,34.73
2019-02-07T14:40:30.503Z,36.13
2019-02-07T14:43:17.684Z,35.67
2019-02-07T14:46:18.131Z,34.23
2019-02-07T14:48:47.413Z,34.90
2019-02-07T14:51:16.794Z,35.67
2019-02-07T14:53:46.252Z,36.30
2019-02-07T14:56:16.240Z,36.30
2019-02-07T14:58:45.723Z,36.60
2019-02-07T15:01:15.056Z,36.13
2019-02-07T15:03:44.385Z,36.27
2019-02-07T15:06:13.892Z,35.83
2019-02-07T15:08:43.287Z,36.60
2019-02-07T15:11:12.676Z,36.13
2019-02-07T15:13:42.122Z,36.60
2019-02-07T15:16:12.527Z,38.33
2019-02-07T15:18:41.948Z,37.67
2019-02-07T15:21:11.319Z,37.57
2019-02-07T15:23:40.856Z,37.17
2019-02-07T15:26:10.372Z,36.50
2019-02-07T15:28:39.791Z,36.13
2019-02-07T15:31:09.601Z,35.60
2019-02-07T15:33:39.090Z,37.50
2019-02-07T15:36:09.748Z,38.30
2019-02-07T15:38:39.140Z,38.13
2019-02-07T15:41:08.948Z,39.27
2019-02-07T15:43:38.328Z,41.53
2019-02-07T15:46:08.908Z,42.77
2019-02-07T15:48:38.375Z,41.93
2019-02-07T15:51:08.649Z,45.10
2019-02-07T15:53:38.036Z,42.10
2019-02-07T15:56:07.659Z,40.47
2019-02-07T15:58:47.877Z,42.53
2019-02-07T16:01:37.332Z,40.83
2019-02-07T16:04:13.526Z,40.50
2019-02-07T16:06:43.800Z,38.50
2019-02-07T16:09:15.015Z,37.93
2019-02-07T16:11:44.310Z,43.97
2019-02-07T16:14:13.665Z,48.33
2019-02-07T16:16:43.568Z,45.50
2019-02-07T16:19:12.932Z,38.87
2019-02-07T16:21:42.314Z,35.63
2019-02-07T16:24:12.132Z,38.87
2019-02-07T16:26:41.604Z,36.80
2019-02-07T16:29:11.068Z,36.73
2019-02-07T16:31:40.690Z,36.13
2019-02-07T16:34:10.272Z,35.80
2019-02-07T16:36:39.664Z,34.70
2019-02-07T16:39:10.027Z,36.17
2019-02-07T16:41:39.348Z,35.90
2019-02-07T16:44:08.628Z,36.20
2019-02-07T16:46:37.965Z,34.10
2019-02-07T16:49:08.169Z,34.63
2019-02-07T16:51:37.696Z,35.40
2019-02-07T16:54:06.982Z,41.63
2019-02-07T16:56:36.423Z,34.63
2019-02-07T16:59:05.760Z,35.47
2019-02-07T17:01:35.164Z,35.23
2019-02-07T17:04:05.891Z,34.83
2019-02-07T17:06:35.168Z,35.80
2019-02-07T17:09:09.403Z,37.00
2019-02-07T17:11:38.752Z,35.50
2019-02-07T17:14:08.075Z,35.50
2019-02-07T17:16:37.380Z,34.80
2019-02-07T17:19:06.929Z,36.47
2019-02-07T17:21:36.224Z,36.90
2019-02-07T17:24:05.566Z,36.63
2019-02-07T17:26:34.860Z,37.87
2019-02-07T17:29:04.600Z,39.33
2019-02-07T17:31:33.930Z,36.80
2019-02-07T17:34:03.298Z,35.30
2019-02-07T17:36:32.808Z,36.67
2019-02-07T17:39:02.232Z,34.93
2019-02-07T17:41:31.618Z,33.20
2019-02-07T17:44:01.020Z,34.80
2019-02-07T17:46:30.333Z,37.97
2019-02-07T17:49:00.541Z,39.23
2019-02-07T17:51:30.230Z,46.27
2019-02-07T17:53:59.630Z,42.77
2019-02-07T17:56:28.908Z,41.97
2019-02-07T17:58:58.248Z,43.63
2019-02-07T18:01:27.533Z,40.57
2019-02-07T18:03:57.548Z,39.30
2019-02-07T18:06:26.878Z,37.10
2019-02-07T18:08:56.248Z,34.67
2019-02-07T18:11:25.570Z,35.70
2019-02-07T18:13:54.933Z,33.80
2019-02-07T18:16:24.459Z,37.23
2019-02-07T18:18:54.641Z,37.03
2019-02-07T18:21:33.673Z,37.80
2019-02-07T18:23:55.165Z,34.47
2019-02-07T18:26:24.522Z,36.27
2019-02-07T18:28:53.872Z,33.27
2019-02-07T18:31:23.165Z,34.43
2019-02-07T18:33:52.760Z,33.27
2019-02-07T18:36:22.165Z,35.43
2019-02-07T18:38:51.649Z,33.87
2019-02-07T18:41:21.000Z,33.03
2019-02-07T18:43:50.396Z,34.33
2019-02-07T18:46:19.740Z,35.00
2019-02-07T18:48:50.028Z,32.87
2019-02-07T18:51:19.470Z,45.77
2019-02-07T18:53:48.920Z,36.87
2019-02-07T18:56:18.274Z,35.00
2019-02-07T18:58:47.627Z,37.17
2019-02-07T19:01:18.032Z,37.77
2019-02-07T19:03:48.312Z,35.47
2019-02-07T19:06:17.717Z,27.43
2019-02-07T19:08:47.124Z,37.90
2019-02-07T19:11:16.557Z,49.80
2019-02-07T19:13:46.032Z,47.27
2019-02-07T19:16:17.485Z,41.60
2019-02-07T19:18:47.940Z,38.63
2019-02-07T19:21:17.376Z,37.23
2019-02-07T19:23:46.809Z,37.53
2019-02-07T19:26:16.165Z,37.73
2019-02-07T19:28:45.486Z,36.87
2019-02-07T19:31:14.956Z,37.07
2019-02-07T19:33:46.267Z,37.60
2019-02-07T19:36:15.652Z,36.37
2019-02-07T19:38:45.016Z,34.83
2019-02-07T19:41:14.341Z,37.20
2019-02-07T19:43:45.580Z,35.33
2019-02-07T19:46:14.914Z,35.67
2019-02-07T19:48:45.576Z,36.90
2019-02-07T19:51:14.917Z,36.93
2019-02-07T19:53:44.267Z,35.73
2019-02-07T19:56:13.731Z,36.20
2019-02-07T19:58:43.060Z,37.37
2019-02-07T20:01:12.474Z,36.70
2019-02-07T20:03:42.756Z,35.37
2019-02-07T20:06:12.149Z,34.40
2019-02-07T20:08:41.500Z,33.73
2019-02-07T20:11:10.857Z,33.33
2019-02-07T20:13:40.200Z,34.63
2019-02-07T20:16:10.194Z,33.87
2019-02-07T20:18:40.481Z,34.43
2019-02-07T20:21:09.925Z,33.30
2019-02-07T20:23:39.707Z,32.97
2019-02-07T20:26:09.793Z,33.67
2019-02-07T20:28:39.242Z,34.90
2019-02-07T20:31:08.688Z,34.77
2019-02-07T20:33:38.229Z,34.07
2019-02-07T20:36:08.433Z,36.00
2019-02-07T20:38:37.900Z,36.60
2019-02-07T20:41:07.308Z,36.00
2019-02-07T20:43:36.727Z,35.53
2019-02-07T20:46:06.584Z,34.47
2019-02-07T20:48:36.040Z,39.33
2019-02-07T20:51:05.515Z,36.23
2019-02-07T20:53:34.949Z,38.83
2019-02-07T20:56:04.716Z,37.90
2019-02-07T20:58:34.189Z,36.77
2019-02-07T21:01:03.687Z,36.23
2019-02-07T21:03:33.698Z,37.00
2019-02-07T21:06:03.241Z,37.33
2019-02-07T21:08:33.511Z,38.70
2019-02-07T21:11:03.412Z,38.37
2019-02-07T21:13:32.952Z,36.07
2019-02-07T21:16:02.800Z,38.67
2019-02-07T21:18:32.940Z,38.27
2019-02-07T21:21:02.314Z,37.83
2019-02-07T21:23:32.946Z,36.57
2019-02-07T21:26:03.056Z,36.23
2019-02-07T21:28:32.978Z,39.33
2019-02-07T21:31:02.674Z,38.33
2019-02-07T21:33:32.652Z,37.57
2019-02-07T21:36:02.967Z,37.63
2019-02-07T21:38:33.114Z,38.63
2019-02-07T21:41:02.675Z,38.40
2019-02-07T21:43:32.505Z,38.03
2019-02-07T21:46:02.645Z,39.07
2019-02-07T21:48:32.852Z,38.83
2019-02-07T21:51:02.261Z,37.77
2019-02-07T21:53:32.089Z,39.40
2019-02-07T21:56:01.870Z,39.90
2019-02-07T21:58:31.535Z,40.40
2019-02-07T22:01:00.827Z,40.23
2019-02-07T22:03:30.172Z,39.07
2019-02-07T22:05:59.513Z,39.67
2019-02-07T22:08:28.817Z,39.37
2019-02-07T22:10:58.836Z,37.33
2019-02-07T22:13:28.155Z,36.90
2019-02-07T22:15:57.527Z,39.77
2019-02-07T22:18:26.913Z,37.90
2019-02-07T22:20:56.204Z,37.80
2019-02-07T22:23:25.603Z,37.03
2019-02-07T22:25:55.116Z,37.73
2019-02-07T22:28:24.496Z,35.93
2019-02-07T22:30:53.841Z,39.20
2019-02-07T22:33:23.171Z,38.47
2019-02-07T22:35:52.472Z,36.07
2019-02-07T22:38:21.843Z,37.97
2019-02-07T22:40:52.009Z,37.57
2019-02-07T22:43:21.328Z,38.20
2019-02-07T22:45:50.712Z,38.83
2019-02-07T22:48:20.041Z,37.13
2019-02-07T22:50:49.364Z,37.13
2019-02-07T22:53:18.704Z,35.87
2019-02-07T22:55:48.909Z,36.43
2019-02-07T22:58:18.235Z,38.77
2019-02-07T23:01:24.958Z,38.47
2019-02-07T23:03:58.992Z,36.47
2019-02-07T23:06:28.339Z,39.10
2019-02-07T23:08:58.049Z,38.23
2019-02-07T23:11:27.801Z,38.23
2019-02-07T23:13:57.468Z,36.63
2019-02-07T23:16:27.748Z,38.37
2019-02-07T23:18:57.067Z,36.63
2019-02-07T23:21:26.368Z,38.07
2019-02-07T23:23:55.689Z,35.63
2019-02-07T23:26:24.984Z,38.23
2019-02-07T23:28:54.336Z,37.10
2019-02-07T23:31:24.524Z,37.03
2019-02-07T23:33:53.944Z,35.17
2019-02-07T23:36:23.568Z,36.57
2019-02-07T23:38:52.850Z,37.57
2019-02-07T23:41:22.959Z,36.03
2019-02-07T23:43:52.288Z,35.63
2019-02-07T23:46:21.679Z,34.23
2019-02-07T23:48:51.082Z,35.10
2019-02-07T23:51:20.749Z,36.00
2019-02-07T23:53:50.095Z,37.67
2019-02-07T23:56:19.440Z,36.77
2019-02-07T23:58:48.716Z,37.20
